Time;durP1;ratioP1;P1;durP2;ratioP2;P2;SDS_P1;SDS_P2;PMS_P1;PMS_P2;Temp;Humidity;BMP_temperature;BMP_pressure;BME280_temperature;BME280_humidity;BME280_pressure;Samples;Min_cycle;Max_cycle;Signal;HPM_P1;HPM_P2
2022/10/15 00:01:52;;;;;;;0.85;0.70;;;;;;;14.31;100.00;98602.22;7393926;19;20018;-87
2022/10/15 00:04:18;;;;;;;0.43;0.43;;;;;;;14.45;100.00;98601.00;7398664;19;20350;-88
2022/10/15 00:06:44;;;;;;;1.08;0.43;;;;;;;14.75;100.00;98592.38;7394264;19;20011;-88
2022/10/15 00:09:11;;;;;;;0.30;0.30;;;;;;;15.14;100.00;98584.78;7397619;19;20007;-89
2022/10/15 00:11:38;;;;;;;1.75;0.52;;;;;;;14.92;100.00;98576.78;7394472;19;20011;-89
2022/10/15 00:14:04;;;;;;;1.05;0.57;;;;;;;14.82;100.00;98564.47;7393986;19;20034;-89
2022/10/15 00:16:32;;;;;;;0.35;0.35;;;;;;;14.73;100.00;98550.88;7392716;19;20010;-90
2022/10/15 00:18:59;;;;;;;0.43;0.43;;;;;;;14.89;100.00;98547.03;7395363;19;20027;-90
2022/10/15 00:21:25;;;;;;;0.47;0.47;;;;;;;14.95;100.00;98542.06;7393568;19;20010;-89
2022/10/15 00:23:52;;;;;;;0.50;0.50;;;;;;;14.83;100.00;98543.56;7397867;19;20022;-89
2022/10/15 00:26:23;;;;;;;0.68;0.68;;;;;;;14.87;100.00;98538.41;7394749;19;20011;-88
2022/10/15 00:28:51;;;;;;;2.33;0.80;;;;;;;14.89;100.00;98552.63;7398271;19;20464;-89
2022/10/15 00:31:25;;;;;;;1.08;1.00;;;;;;;14.92;100.00;98550.81;7394444;19;20027;-89
2022/10/15 00:33:52;;;;;;;4.63;1.15;;;;;;;14.77;100.00;98556.91;7393247;19;20038;-89
2022/10/15 00:36:23;;;;;;;0.60;0.57;;;;;;;14.87;100.00;98555.22;7391430;19;20011;-88
2022/10/15 00:38:50;;;;;;;0.68;0.68;;;;;;;15.00;100.00;98558.03;7394948;19;20721;-88
2022/10/15 00:41:22;;;;;;;1.90;0.60;;;;;;;15.10;100.00;98550.72;7394405;19;20368;-88
2022/10/15 00:43:54;;;;;;;2.03;0.85;;;;;;;15.28;100.00;98542.72;7391561;19;20018;-88
2022/10/15 00:46:36;;;;;;;0.47;0.47;;;;;;;15.28;100.00;98537.13;7401032;19;20014;-88
2022/10/15 00:49:17;;;;;;;0.73;0.73;;;;;;;15.40;100.00;98538.44;7405452;19;20035;-88
2022/10/15 00:51:48;;;;;;;1.52;1.13;;;;;;;15.61;100.00;98533.69;7401467;19;20007;-87
2022/10/15 00:54:15;;;;;;;2.17;0.68;;;;;;;15.72;100.00;98530.66;7398943;19;20677;-88
2022/10/15 00:56:43;;;;;;;1.95;0.75;;;;;;;15.83;100.00;98525.53;7398966;19;20011;-87
2022/10/15 00:59:13;;;;;;;0.50;0.50;;;;;;;15.93;100.00;98525.84;7400838;19;20321;-85
2022/10/15 01:01:39;;;;;;;0.22;0.22;;;;;;;15.85;100.00;98516.56;7397513;19;20010;-88
2022/10/15 01:04:07;;;;;;;0.40;0.40;;;;;;;15.83;100.00;98513.56;7398313;19;20015;-88
2022/10/15 01:06:35;;;;;;;0.40;0.40;;;;;;;15.80;100.00;98495.75;7399936;19;20033;-88
2022/10/15 01:09:01;;;;;;;8.15;1.13;;;;;;;15.71;100.00;98499.00;7403808;19;20108;-86
2022/10/15 01:11:36;;;;;;;0.85;0.55;;;;;;;15.94;100.00;98496.44;7400273;19;20082;-90
2022/10/15 01:14:40;;;;;;;4.10;0.85;;;;;;;16.04;100.00;98483.47;7399009;19;20109;-89
2022/10/15 01:17:23;;;;;;;3.78;1.20;;;;;;;16.26;100.00;98477.31;7397653;19;20015;-92
2022/10/15 01:19:58;;;;;;;5.10;0.50;;;;;;;16.38;100.00;98477.78;7397569;19;20070;-91
2022/10/15 01:22:39;;;;;;;1.00;0.90;;;;;;;16.37;100.00;98462.22;7397499;19;20014;-91
2022/10/15 01:25:18;;;;;;;0.40;0.40;;;;;;;16.36;100.00;98463.53;7397332;19;20019;-92
2022/10/15 01:28:12;;;;;;;1.33;0.35;;;;;;;16.36;100.00;98457.91;7400653;19;20765;-91
2022/10/15 01:30:47;;;;;;;1.08;0.43;;;;;;;16.43;100.00;98438.31;7400075;19;20018;-90
2022/10/15 01:33:26;;;;;;;0.77;0.57;;;;;;;16.36;100.00;98436.19;7400290;19;20007;-93
2022/10/15 01:36:15;;;;;;;0.40;0.40;;;;;;;16.47;100.00;98438.72;7396983;19;20066;-91
2022/10/15 01:38:59;;;;;;;0.60;0.60;;;;;;;16.51;100.00;98429.94;7401290;19;20025;-93
2022/10/15 01:41:43;;;;;;;1.17;0.50;;;;;;;16.50;100.00;98423.56;7399764;19;20514;-93
2022/10/15 01:44:26;;;;;;;1.05;0.55;;;;;;;16.46;100.00;98413.94;7398361;19;20010;-91
2022/10/15 01:47:29;;;;;;;3.13;0.93;;;;;;;16.48;100.00;98397.31;7399354;19;20010;-92
2022/10/15 01:49:57;;;;;;;1.05;0.75;;;;;;;16.48;100.00;98398.06;7399704;19;20475;-92
2022/10/15 01:52:29;;;;;;;2.17;1.15;;;;;;;16.44;100.00;98388.47;7399557;19;20087;-93
2022/10/15 01:54:58;;;;;;;1.75;0.95;;;;;;;16.57;100.00;98389.16;7397817;19;20018;-89
2022/10/15 01:57:28;;;;;;;1.15;0.38;;;;;;;16.92;100.00;98382.06;7401141;19;20088;-90
2022/10/15 01:59:56;;;;;;;0.43;0.43;;;;;;;17.25;100.00;98381.09;7399568;19;20023;-91
2022/10/15 02:02:23;;;;;;;0.60;0.60;;;;;;;17.27;100.00;98383.34;7396046;19;20035;-91
2022/10/15 02:04:49;;;;;;;1.95;0.57;;;;;;;16.89;100.00;98379.59;7392265;19;20011;-92
2022/10/15 02:07:42;;;;;;;1.35;1.02;;;;;;;16.88;100.00;98383.72;7396163;19;20078;-91
2022/10/15 02:10:24;;;;;;;1.23;0.98;;;;;;;17.13;100.00;98374.28;7398584;19;20111;-92
2022/10/15 02:12:50;;;;;;;3.10;0.68;;;;;;;17.06;100.00;98360.94;7397831;19;20010;-92
2022/10/15 02:15:31;;;;;;;1.75;1.17;;;;;;;17.25;100.00;98349.38;7394348;19;20021;-89
2022/10/15 02:18:04;;;;;;;0.63;0.63;;;;;;;17.39;100.00;98331.78;7398756;19;20052;-89
2022/10/15 02:20:43;;;;;;;2.20;0.50;;;;;;;17.66;100.00;98335.06;7400202;19;20066;-89
2022/10/15 02:23:14;;;;;;;4.63;0.90;;;;;;;17.41;100.00;98331.97;7402216;19;20732;-89
2022/10/15 02:25:42;;;;;;;3.45;0.55;;;;;;;17.40;100.00;98329.72;7396310;19;20353;-89
2022/10/15 02:28:11;;;;;;;2.13;0.70;;;;;;;17.53;100.00;98326.00;7399220;19;20017;-88
2022/10/15 02:30:41;;;;;;;1.83;0.65;;;;;;;17.62;100.00;98329.03;7396345;19;20022;-89
2022/10/15 02:33:11;;;;;;;0.70;0.60;;;;;;;17.63;100.00;98327.00;7395765;19;20107;-89
2022/10/15 02:35:41;;;;;;;1.40;0.70;;;;;;;17.68;100.00;98335.25;7394826;19;20038;-89
2022/10/15 02:38:11;;;;;;;1.33;0.60;;;;;;;17.55;100.00;98318.53;7398455;19;20014;-87
2022/10/15 02:40:41;;;;;;;1.67;0.77;;;;;;;17.45;100.00;98306.28;7396924;19;20007;-88
2022/10/15 02:43:09;;;;;;;1.48;0.63;;;;;;;17.30;100.00;98295.72;7398255;19;20026;-89
2022/10/15 02:45:36;;;;;;;1.13;0.50;;;;;;;17.26;100.00;98283.38;7394817;19;20014;-89
2022/10/15 02:48:03;;;;;;;1.20;0.52;;;;;;;17.24;100.00;98277.53;7398536;19;20014;-88
2022/10/15 02:50:29;;;;;;;1.75;0.40;;;;;;;17.28;100.00;98269.50;7396411;19;20018;-89
2022/10/15 02:52:55;;;;;;;2.13;0.70;;;;;;;17.37;100.00;98271.72;7396887;19;20433;-91
2022/10/15 02:55:21;;;;;;;0.30;0.28;;;;;;;17.21;100.00;98265.34;7394980;19;20035;-91
2022/10/15 02:57:48;;;;;;;0.32;0.32;;;;;;;17.35;100.00;98265.91;7397717;19;20007;-90
2022/10/15 03:00:17;;;;;;;2.92;0.45;;;;;;;17.32;100.00;98264.25;7396322;19;20018;-89
2022/10/15 03:02:44;;;;;;;0.50;0.45;;;;;;;17.25;100.00;98259.34;7398403;19;20018;-88
2022/10/15 03:05:10;;;;;;;0.60;0.35;;;;;;;17.37;100.00;98254.84;7394296;19;20015;-89
2022/10/15 03:07:37;;;;;;;2.25;0.73;;;;;;;17.43;100.00;98249.81;7395416;19;20038;-88
2022/10/15 03:10:04;;;;;;;0.63;0.13;;;;;;;17.48;100.00;98240.41;7395952;19;20011;-89
2022/10/15 03:12:31;;;;;;;0.30;0.28;;;;;;;17.52;100.00;98237.28;7393952;19;20365;-89
2022/10/15 03:14:58;;;;;;;0.32;0.20;;;;;;;17.56;100.00;98227.13;7394590;19;20017;-91
2022/10/15 03:17:25;;;;;;;1.13;0.65;;;;;;;17.80;100.00;98206.84;7396083;19;20035;-91
2022/10/15 03:19:51;;;;;;;0.35;0.32;;;;;;;17.85;100.00;98208.72;7398044;19;20018;-91
2022/10/15 03:22:17;;;;;;;0.70;0.50;;;;;;;17.86;100.00;98209.47;7398583;19;20025;-91
2022/10/15 03:24:50;;;;;;;1.38;0.52;;;;;;;17.90;100.00;98213.41;7395375;19;20022;-91
2022/10/15 03:27:22;;;;;;;0.50;0.35;;;;;;;17.82;100.00;98209.84;7396110;19;20019;-90
2022/10/15 03:29:48;;;;;;;0.43;0.43;;;;;;;17.78;100.00;98205.91;7395578;19;20046;-91
2022/10/15 03:32:15;;;;;;;0.68;0.40;;;;;;;17.74;100.00;98197.84;7394126;19;20030;-90
2022/10/15 03:34:41;;;;;;;0.40;0.40;;;;;;;17.76;100.00;98205.72;7395038;19;20046;-89
2022/10/15 03:37:11;;;;;;;0.10;0.10;;;;;;;17.87;100.00;98205.31;7395577;19;20038;-89
2022/10/15 03:39:38;;;;;;;0.20;0.10;;;;;;;17.97;100.00;98198.56;7399522;19;20022;-89
2022/10/15 03:42:06;;;;;;;2.70;0.30;;;;;;;18.03;100.00;98187.84;7398959;19;20022;-89
2022/10/15 03:44:44;;;;;;;3.35;0.43;;;;;;;18.22;100.00;98192.28;7395455;19;20358;-88
2022/10/15 03:47:13;;;;;;;0.32;0.15;;;;;;;18.54;100.00;98187.50;7394456;19;20011;-88
2022/10/15 03:49:47;;;;;;;0.60;0.40;;;;;;;18.43;100.00;98184.34;7393606;19;20022;-87
2022/10/15 03:52:14;;;;;;;0.50;0.10;;;;;;;18.47;100.00;98170.63;7397355;19;20014;-89
2022/10/15 03:54:41;;;;;;;1.88;0.50;;;;;;;18.61;100.00;98177.50;7393742;19;20011;-90
2022/10/15 03:57:08;;;;;;;0.52;0.30;;;;;;;18.59;100.00;98171.69;7394869;19;20022;-90
2022/10/15 03:59:39;;;;;;;;;;;;;;;18.52;100.00;98178.09;7399521;19;20026;-90
2022/10/15 04:02:06;;;;;;;1.23;0.40;;;;;;;18.37;100.00;98166.88;7394513;19;19938;-90
2022/10/15 04:04:32;;;;;;;0.40;0.28;;;;;;;18.34;100.00;98168.78;7393971;19;20014;-92
2022/10/15 04:06:58;;;;;;;0.30;0.30;;;;;;;18.33;100.00;98166.50;7394177;19;20417;-92
2022/10/15 04:09:25;;;;;;;0.85;0.40;;;;;;;18.13;100.00;98160.56;7398162;19;20007;-92
2022/10/15 04:11:52;;;;;;;0.40;0.40;;;;;;;18.07;100.00;98162.09;7394709;19;20014;-93
2022/10/15 04:14:20;;;;;;;0.47;0.47;;;;;;;18.04;100.00;98135.81;7392743;19;20535;-91
2022/10/15 04:16:46;;;;;;;0.10;0.10;;;;;;;18.10;100.00;98130.72;7397485;19;20011;-91
2022/10/15 04:19:17;;;;;;;0.10;0.10;;;;;;;18.18;100.00;98127.88;7394641;19;20015;-91
2022/10/15 04:21:52;;;;;;;0.28;0.28;;;;;;;18.10;100.00;98133.53;7392678;19;20018;-91
2022/10/15 04:24:30;;;;;;;2.90;0.90;;;;;;;18.11;100.00;98123.75;7391986;19;20090;-91
2022/10/15 04:26:56;;;;;;;0.32;0.30;;;;;;;18.21;100.00;98121.09;7394094;19;20777;-91
2022/10/15 04:29:22;;;;;;;0.13;0.10;;;;;;;18.16;100.00;98120.00;7397858;19;20670;-91
2022/10/15 04:31:49;;;;;;;0.17;0.17;;;;;;;18.13;100.00;98115.50;7393804;19;20015;-91
2022/10/15 04:34:16;;;;;;;0.13;0.10;;;;;;;18.19;100.00;98124.47;7391957;19;20006;-90
2022/10/15 04:36:42;;;;;;;0.30;0.13;;;;;;;18.21;100.00;98123.94;7391501;19;20015;-90
2022/10/15 04:39:13;;;;;;;0.10;0.10;;;;;;;18.31;100.00;98112.78;7395515;19;20026;-90
2022/10/15 04:41:43;;;;;;;4.70;0.93;;;;;;;18.37;100.00;98122.53;7391107;19;20011;-90
2022/10/15 04:44:26;;;;;;;0.95;0.30;;;;;;;18.41;100.00;98116.50;7391827;19;20029;-89
2022/10/15 04:46:56;;;;;;;0.20;0.20;;;;;;;18.46;100.00;98129.66;7393192;19;20081;-89
2022/10/15 04:49:46;;;;;;;0.20;0.10;;;;;;;18.53;100.00;98124.00;7392934;19;20014;-89
2022/10/15 04:52:29;;;;;;;0.73;0.20;;;;;;;18.54;100.00;98119.06;7396160;19;20019;-89
2022/10/15 04:54:57;;;;;;;2.28;0.10;;;;;;;18.53;100.00;98123.22;7392634;19;20014;-89
2022/10/15 04:57:25;;;;;;;0.40;0.20;;;;;;;18.42;100.00;98124.38;7395816;19;20082;-89
2022/10/15 04:59:53;;;;;;;0.20;0.10;;;;;;;18.48;100.00;98127.75;7395141;19;20014;-89
2022/10/15 05:02:42;;;;;;;0.45;0.22;;;;;;;18.40;100.00;98117.81;7394472;19;20014;-88
2022/10/15 05:05:21;;;;;;;0.10;0.10;;;;;;;18.35;100.00;98121.59;7392210;19;20031;-88
2022/10/15 05:08:02;;;;;;;0.45;0.25;;;;;;;18.38;100.00;98120.47;7393276;19;20011;-89
2022/10/15 05:10:31;;;;;;;5.38;0.43;;;;;;;18.35;100.00;98121.59;7392039;19;20017;-89
2022/10/15 05:13:02;;;;;;;0.47;0.10;;;;;;;18.27;100.00;98118.06;7391685;19;20022;-89
2022/10/15 05:15:32;;;;;;;0.43;0.43;;;;;;;18.24;100.00;98113.56;7391166;19;20015;-89
2022/10/15 05:17:58;;;;;;;0.90;0.45;;;;;;;18.19;100.00;98129.38;7393194;19;20336;-89
2022/10/15 05:20:31;;;;;;;0.30;0.20;;;;;;;18.19;100.00;98123.75;7392250;19;20007;-88
2022/10/15 05:22:58;;;;;;;0.25;0.13;;;;;;;18.11;100.00;98112.50;7396896;19;20011;-89
2022/10/15 05:25:30;;;;;;;1.85;0.40;;;;;;;18.14;100.00;98122.63;7390532;19;20022;-89
2022/10/15 05:27:56;;;;;;;0.20;0.20;;;;;;;18.06;100.00;98112.72;7393825;19;20043;-89
2022/10/15 05:30:22;;;;;;;0.95;0.55;;;;;;;17.91;100.00;98116.31;7392043;19;20015;-88
2022/10/15 05:32:52;;;;;;;4.38;0.55;;;;;;;17.91;100.00;98112.78;7396773;19;20022;-88
2022/10/15 05:35:20;;;;;;;0.50;0.50;;;;;;;17.92;100.00;98112.19;7395952;19;20007;-88
2022/10/15 05:38:12;;;;;;;0.10;0.10;;;;;;;17.90;100.00;98109.19;7400219;19;20461;-88
2022/10/15 05:40:39;;;;;;;0.63;0.40;;;;;;;17.81;100.00;98109.03;7399324;19;20039;-88
2022/10/15 05:43:17;;;;;;;2.83;0.60;;;;;;;17.64;100.00;98109.63;7402931;19;20007;-90
2022/10/15 05:45:43;;;;;;;0.68;0.35;;;;;;;17.57;100.00;98107.59;7397521;19;20488;-88
2022/10/15 05:48:09;;;;;;;0.15;0.15;;;;;;;17.61;100.00;98107.19;7399309;19;20015;-88
2022/10/15 05:50:35;;;;;;;0.20;0.20;;;;;;;17.71;100.00;98108.88;7399328;19;20010;-88
2022/10/15 05:53:03;;;;;;;0.73;0.55;;;;;;;17.61;100.00;98116.38;7397136;19;20014;-88
2022/10/15 05:55:36;;;;;;;0.52;0.30;;;;;;;17.39;100.00;98120.72;7394297;19;20592;-88
2022/10/15 05:58:03;;;;;;;0.52;0.50;;;;;;;17.41;100.00;98108.91;7398082;19;20014;-88
2022/10/15 06:00:29;;;;;;;0.10;0.10;;;;;;;17.30;100.00;98109.28;7398533;19;20685;-88
2022/10/15 06:02:56;;;;;;;0.30;0.20;;;;;;;17.23;100.00;98115.66;7399469;19;20014;-88
2022/10/15 06:05:23;;;;;;;0.90;0.55;;;;;;;17.24;100.00;98117.16;7392381;19;20022;-88
2022/10/15 06:07:50;;;;;;;0.68;0.20;;;;;;;17.14;100.00;98114.16;7397012;19;20025;-89
2022/10/15 06:10:16;;;;;;;0.25;0.25;;;;;;;16.96;100.00;98108.91;7398132;19;20010;-88
2022/10/15 06:12:48;;;;;;;2.38;0.50;;;;;;;16.79;100.00;98106.63;7397611;19;20014;-88
2022/10/15 06:15:15;;;;;;;0.30;0.25;;;;;;;16.99;100.00;98102.16;7398103;19;20037;-87
2022/10/15 06:17:41;;;;;;;3.70;0.50;;;;;;;17.10;100.00;98113.78;7399128;19;20022;-88
2022/10/15 06:20:07;;;;;;;0.20;0.20;;;;;;;17.28;100.00;98120.38;7400280;19;20472;-88
2022/10/15 06:22:33;;;;;;;0.20;0.20;;;;;;;17.33;100.00;98108.91;7399942;19;20018;-89
2022/10/15 06:25:00;;;;;;;0.20;0.20;;;;;;;17.54;100.00;98103.09;7396784;19;20042;-88
2022/10/15 06:27:27;;;;;;;0.10;0.10;;;;;;;17.62;100.00;98097.44;7399068;19;20027;-89
2022/10/15 06:29:53;;;;;;;0.13;0.13;;;;;;;17.53;100.00;98098.78;7403209;19;20019;-88
2022/10/15 06:32:19;;;;;;;0.10;0.10;;;;;;;17.61;100.00;98095.94;7398900;19;20029;-88
2022/10/15 06:34:45;;;;;;;0.20;0.20;;;;;;;17.56;100.00;98094.09;7396427;19;20019;-89
2022/10/15 06:37:11;;;;;;;0.10;0.10;;;;;;;17.74;100.00;98101.34;7397416;19;20082;-89
2022/10/15 06:39:39;;;;;;;0.10;0.10;;;;;;;17.79;100.00;98098.34;7401529;19;20042;-89
2022/10/15 06:42:05;;;;;;;0.15;0.15;;;;;;;17.74;100.00;98102.09;7398436;19;20512;-89
2022/10/15 06:44:40;;;;;;;1.38;0.20;;;;;;;17.58;100.00;98100.66;7398876;19;20022;-89
2022/10/15 06:47:06;;;;;;;0.25;0.20;;;;;;;17.50;100.00;98088.63;7397275;19;20015;-89
2022/10/15 06:49:33;;;;;;;0.32;0.10;;;;;;;17.29;100.00;98091.66;7400808;19;20018;-88
2022/10/15 06:51:59;;;;;;;0.10;0.10;;;;;;;17.12;100.00;98104.78;7397407;19;20018;-88
2022/10/15 06:54:25;;;;;;;0.40;0.40;;;;;;;17.16;100.00;98105.16;7393601;19;20074;-88
2022/10/15 06:56:51;;;;;;;0.30;0.20;;;;;;;17.24;100.00;98112.28;7394928;19;20018;-88
2022/10/15 06:59:17;;;;;;;1.83;0.20;;;;;;;17.28;100.00;98104.22;7400065;19;20011;-88
2022/10/15 07:01:43;;;;;;;0.10;0.10;;;;;;;17.42;100.00;98104.75;7393773;19;20349;-88
2022/10/15 07:04:10;;;;;;;0.40;0.40;;;;;;;17.42;100.00;98076.63;7396359;19;20018;-88
2022/10/15 07:06:36;;;;;;;0.35;0.35;;;;;;;17.47;100.00;98041.91;7397714;19;20019;-87
2022/10/15 07:09:04;;;;;;;0.30;0.10;;;;;;;17.30;100.00;98065.00;7401562;19;20018;-88
2022/10/15 07:11:30;;;;;;;0.30;0.30;;;;;;;17.38;100.00;98074.19;7395764;19;20010;-88
2022/10/15 07:13:57;;;;;;;0.10;0.10;;;;;;;17.39;100.00;98089.00;7395884;19;20026;-88
2022/10/15 07:16:23;;;;;;;0.10;0.10;;;;;;;17.35;100.00;98068.94;7395788;19;20517;-87
2022/10/15 07:18:49;;;;;;;0.10;0.10;;;;;;;17.15;100.00;98064.28;7398938;19;20019;-88
2022/10/15 07:21:15;;;;;;;0.10;0.10;;;;;;;17.27;100.00;98071.00;7396481;19;20032;-88
2022/10/15 07:23:41;;;;;;;0.10;0.10;;;;;;;17.36;100.00;98081.69;7393734;19;20029;-88
2022/10/15 07:26:08;;;;;;;0.10;0.10;;;;;;;17.31;100.00;98077.00;7393806;19;20477;-86
2022/10/15 07:28:34;;;;;;;0.10;0.10;;;;;;;17.23;100.00;98093.16;7401606;19;20026;-87
2022/10/15 07:31:06;;;;;;;0.17;0.17;;;;;;;17.22;100.00;98102.91;7397072;19;20018;-88
2022/10/15 07:33:35;;;;;;;0.57;0.30;;;;;;;17.33;100.00;98102.53;7395428;19;20007;-87
2022/10/15 07:36:04;;;;;;;0.20;0.20;;;;;;;17.34;100.00;98104.03;7394182;19;20038;-87
2022/10/15 07:38:31;;;;;;;0.30;0.10;;;;;;;17.36;100.00;98098.59;7398793;19;20035;-87
2022/10/15 07:40:59;;;;;;;0.20;0.20;;;;;;;17.37;100.00;98105.69;7396599;19;20007;-87
2022/10/15 07:43:26;;;;;;;0.20;0.20;;;;;;;17.34;100.00;98116.03;7393564;19;20078;-87
2022/10/15 07:45:53;;;;;;;1.45;0.68;;;;;;;17.24;100.00;98111.53;7392871;19;20011;-87
2022/10/15 07:48:19;;;;;;;0.10;0.10;;;;;;;17.14;100.00;98113.41;7397577;19;20021;-87
2022/10/15 07:50:45;;;;;;;0.15;0.13;;;;;;;17.18;100.00;98110.97;7394687;19;20503;-85
2022/10/15 07:53:12;;;;;;;0.10;0.10;;;;;;;17.20;100.00;98111.91;7396421;19;20010;-87
2022/10/15 07:55:38;;;;;;;0.10;0.10;;;;;;;17.34;100.00;98110.41;7392050;19;20069;-87
2022/10/15 07:58:07;;;;;;;1.00;0.20;;;;;;;17.34;100.00;98112.47;7396552;19;20349;-86
2022/10/15 08:00:33;;;;;;;0.43;0.30;;;;;;;17.32;100.00;98109.47;7394151;19;20034;-87
2022/10/15 08:02:59;;;;;;;0.10;0.10;;;;;;;17.25;100.00;98104.59;7393367;19;20042;-86
2022/10/15 08:05:25;;;;;;;0.20;0.20;;;;;;;17.17;100.00;98103.84;7394204;19;20018;-88
2022/10/15 08:07:51;;;;;;;0.10;0.10;;;;;;;17.14;100.00;98119.03;7395107;19;20086;-88
2022/10/15 08:10:17;;;;;;;0.20;0.20;;;;;;;17.04;100.00;98127.31;7394594;19;20015;-88
2022/10/15 08:12:43;;;;;;;0.10;0.10;;;;;;;17.09;100.00;98117.16;7392599;19;20011;-85
2022/10/15 08:15:12;;;;;;;0.10;0.10;;;;;;;17.09;100.00;98119.97;7395888;19;20010;-87
2022/10/15 08:17:38;;;;;;;0.17;0.17;;;;;;;17.06;100.00;98116.25;7394141;19;20333;-87
2022/10/15 08:20:05;;;;;;;0.10;0.10;;;;;;;17.11;100.00;98120.16;7393561;19;20021;-87
2022/10/15 08:22:32;;;;;;;0.10;0.10;;;;;;;17.38;100.00;98122.03;7395766;19;20980;-87
2022/10/15 08:24:58;;;;;;;0.10;0.10;;;;;;;17.60;100.00;98126.16;7393211;19;20010;-86
2022/10/15 08:27:25;;;;;;;0.75;0.35;;;;;;;17.75;100.00;98125.38;7392911;19;20022;-87
2022/10/15 08:29:56;;;;;;;0.43;0.43;;;;;;;17.96;100.00;98118.19;7393763;19;20317;-87
2022/10/15 08:32:22;;;;;;;0.32;0.32;;;;;;;18.14;100.00;98128.28;7394939;19;20015;-86
2022/10/15 08:34:48;;;;;;;0.30;0.30;;;;;;;18.22;100.00;98131.03;7393908;19;20039;-86
2022/10/15 08:37:14;;;;;;;0.10;0.10;;;;;;;18.30;100.00;98133.84;7396024;19;20030;-87
2022/10/15 08:39:40;;;;;;;0.10;0.10;;;;;;;18.35;100.00;98138.50;7397418;19;20022;-87
2022/10/15 08:42:18;;;;;;;0.30;0.30;;;;;;;18.39;100.00;98141.66;7393792;19;20010;-87
2022/10/15 08:44:50;;;;;;;0.10;0.10;;;;;;;18.38;100.00;98140.94;7393652;19;20007;-87
2022/10/15 08:47:37;;;;;;;0.10;0.10;;;;;;;18.33;100.00;98141.16;7394301;19;20011;-88
2022/10/15 08:50:31;;;;;;;0.45;0.45;;;;;;;18.32;100.00;98148.13;7392229;19;20021;-85
2022/10/15 08:52:58;;;;;;;0.10;0.10;;;;;;;18.36;100.00;98151.28;7393528;19;20018;-87
2022/10/15 08:55:30;;;;;;;0.47;0.35;;;;;;;18.49;100.00;98154.66;7389678;19;20015;-84
2022/10/15 08:58:02;;;;;;;0.63;0.25;;;;;;;18.36;100.00;98154.09;7390112;19;20074;-84
2022/10/15 09:00:32;;;;;;;0.10;0.10;;;;;;;18.28;100.00;98159.03;7388692;19;20015;-84
2022/10/15 09:03:05;;;;;;;0.10;0.10;;;;;;;18.10;100.00;98166.59;7387919;19;20011;-84
2022/10/15 09:05:57;;;;;;;0.10;0.10;;;;;;;17.96;100.00;98168.88;7388448;19;20025;-85
2022/10/15 09:08:32;;;;;;;0.10;0.10;;;;;;;17.92;100.00;98168.53;7396965;19;20766;-84
2022/10/15 09:11:05;;;;;;;0.10;0.10;;;;;;;18.19;100.00;98175.19;7393681;19;20050;-82
2022/10/15 09:13:39;;;;;;;0.30;0.20;;;;;;;18.11;100.00;98168.84;7395591;19;20022;-85
2022/10/15 09:16:14;;;;;;;0.63;0.20;;;;;;;18.04;100.00;98180.88;7395238;19;20019;-86
2022/10/15 09:18:46;;;;;;;1.98;0.77;;;;;;;18.00;100.00;98186.16;7395348;19;20010;-85
2022/10/15 09:21:14;;;;;;;0.10;0.10;;;;;;;17.88;100.00;98187.88;7395922;19;20018;-85
2022/10/15 09:23:43;;;;;;;0.20;0.20;;;;;;;17.75;100.00;98195.78;7398081;19;20011;-85
2022/10/15 09:26:24;;;;;;;0.47;0.47;;;;;;;17.97;100.00;98195.75;7395889;19;20014;-84
2022/10/15 09:28:59;;;;;;;;;;;;;;;18.38;100.00;98199.38;7400297;19;20350;-85
2022/10/15 09:31:32;;;;;;;0.10;0.10;;;;;;;18.33;100.00;98201.09;7396300;19;19918;-85
2022/10/15 09:34:06;;;;;;;0.52;0.52;;;;;;;18.35;100.00;98221.00;7398396;19;20039;-85
2022/10/15 09:36:40;;;;;;;0.47;0.47;;;;;;;18.53;100.00;98213.44;7395341;19;20077;-86
2022/10/15 09:39:31;;;;;;;1.05;0.30;;;;;;;18.91;100.00;98219.66;7397720;19;20018;-84
2022/10/15 09:42:26;;;;;;;2.72;0.38;;;;;;;19.07;100.00;98229.53;7391826;19;20024;-85
2022/10/15 09:44:56;;;;;;;0.43;0.43;;;;;;;19.04;100.00;98221.47;7392627;19;20043;-84
2022/10/15 09:47:27;;;;;;;0.70;0.70;;;;;;;19.04;100.00;98224.28;7394125;19;20018;-85
2022/10/15 09:49:59;;;;;;;0.13;0.13;;;;;;;18.98;100.00;98223.75;7393720;19;20018;-84
2022/10/15 09:52:56;;;;;;;0.45;0.35;;;;;;;18.75;100.00;98240.81;7395016;19;20492;-85
2022/10/15 09:55:26;;;;;;;1.17;0.20;;;;;;;19.01;100.00;98245.94;7397277;19;20019;-85
2022/10/15 09:57:55;;;;;;;0.22;0.22;;;;;;;18.75;100.00;98246.44;7394657;19;20505;-84
2022/10/15 10:00:22;;;;;;;0.10;0.00;;;;;;;18.61;100.00;98239.53;7395150;19;20130;-85
2022/10/15 10:03:05;;;;;;;0.85;0.80;;;;;;;18.42;100.00;98239.97;7396356;19;20019;-85
2022/10/15 10:05:35;;;;;;;0.10;0.10;;;;;;;18.15;100.00;98242.47;7394621;19;20019;-84
2022/10/15 10:08:23;;;;;;;0.10;0.10;;;;;;;18.35;100.00;98242.78;7396494;19;20054;-84
2022/10/15 10:10:57;;;;;;;1.27;0.40;;;;;;;18.68;100.00;98244.41;7392607;19;20849;-83
2022/10/15 10:13:27;;;;;;;0.20;0.13;;;;;;;19.13;100.00;98251.88;7393440;19;20030;-85
2022/10/15 10:15:55;;;;;;;0.40;0.30;;;;;;;19.43;100.00;98246.81;7391116;19;20022;-84
2022/10/15 10:18:24;;;;;;;;;;;;;;;19.45;100.00;98258.28;7395764;19;20019;-84
2022/10/15 10:21:00;;;;;;;8.20;1.10;;;;;;;19.24;100.00;98255.03;7394500;19;19946;-84
2022/10/15 10:23:31;;;;;;;1.25;0.82;;;;;;;18.97;100.00;98251.25;7393067;19;20026;-84
2022/10/15 10:25:58;;;;;;;0.10;0.10;;;;;;;18.89;100.00;98244.88;7393259;19;20023;-83
2022/10/15 10:28:45;;;;;;;4.75;0.60;;;;;;;18.87;100.00;98253.16;7396963;19;20100;-84
2022/10/15 10:31:11;;;;;;;9.50;0.43;;;;;;;18.69;100.00;98248.75;7393182;19;20035;-85
2022/10/15 10:33:40;;;;;;;0.30;0.30;;;;;;;18.52;100.00;98246.53;7390426;19;20458;-84
2022/10/15 10:36:23;;;;;;;2.17;0.57;;;;;;;18.37;100.00;98248.59;7391218;19;20010;-84
2022/10/15 10:38:55;;;;;;;1.17;0.13;;;;;;;18.26;100.00;98252.56;7396389;19;20019;-83
2022/10/15 10:41:22;;;;;;;8.07;0.60;;;;;;;18.22;100.00;98257.84;7395095;19;20022;-83
2022/10/15 10:43:54;;;;;;;0.50;0.20;;;;;;;18.18;100.00;98258.25;7391579;19;20485;-83
2022/10/15 10:46:23;;;;;;;1.23;0.30;;;;;;;18.03;100.00;98251.88;7394753;19;20094;-83
2022/10/15 10:48:53;;;;;;;0.95;0.30;;;;;;;17.80;100.00;98251.88;7392908;19;21117;-83
2022/10/15 10:51:25;;;;;;;0.50;0.45;;;;;;;17.71;100.00;98248.91;7392778;19;20033;-82
2022/10/15 10:54:05;;;;;;;3.20;0.40;;;;;;;17.52;100.00;98257.69;7389260;19;20533;-83
2022/10/15 10:56:39;;;;;;;1.27;0.52;;;;;;;17.54;100.00;98257.91;7392605;19;20025;-84
2022/10/15 10:59:16;;;;;;;0.13;0.13;;;;;;;17.73;100.00;98252.66;7395006;19;20015;-84
2022/10/15 11:01:44;;;;;;;1.17;0.32;;;;;;;18.32;100.00;98260.84;7397320;19;20025;-84
2022/10/15 11:04:23;;;;;;;2.38;0.50;;;;;;;18.92;100.00;98249.38;7388562;19;20018;-85
2022/10/15 11:07:07;;;;;;;0.10;0.10;;;;;;;19.59;100.00;98248.22;7395644;19;20014;-85
2022/10/15 11:10:04;;;;;;;0.68;0.68;;;;;;;20.27;100.00;98244.06;7398586;19;20052;-84
2022/10/15 11:12:51;;;;;;;0.30;0.20;;;;;;;20.46;100.00;98258.38;7398456;19;20480;-84
2022/10/15 11:15:45;;;;;;;0.40;0.40;;;;;;;20.67;100.00;98247.38;7393768;19;20099;-85
2022/10/15 11:18:33;;;;;;;0.10;0.10;;;;;;;20.26;100.00;98256.69;7395677;19;20007;-86
2022/10/15 11:21:18;;;;;;;1.50;0.45;;;;;;;20.87;100.00;98260.34;7394685;19;20020;-84
2022/10/15 11:24:12;;;;;;;5.57;0.40;;;;;;;21.07;100.00;98247.09;7393235;19;20006;-85
2022/10/15 11:27:03;;;;;;;1.42;0.25;;;;;;;20.80;100.00;98249.84;7393487;19;20086;-85
2022/10/15 11:29:44;;;;;;;0.95;0.43;;;;;;;20.75;100.00;98256.50;7397356;19;20387;-86
2022/10/15 11:32:40;;;;;;;2.83;0.63;;;;;;;20.82;100.00;98249.25;7398841;19;20014;-84
2022/10/15 11:35:41;;;;;;;0.10;0.08;;;;;;;21.49;100.00;98241.16;7393615;19;20010;-85
2022/10/15 11:38:22;;;;;;;4.53;0.60;;;;;;;21.96;100.00;98246.28;7394225;19;20011;-85
2022/10/15 11:40:54;;;;;;;5.70;1.80;;;;;;;21.55;100.00;98238.84;7392082;19;20010;-85
2022/10/15 11:43:53;;;;;;;4.63;1.15;;;;;;;21.91;100.00;98241.66;7392889;19;20037;-85
2022/10/15 11:46:19;;;;;;;0.25;0.25;;;;;;;21.85;100.00;98238.38;7390787;19;20044;-85
2022/10/15 11:48:48;;;;;;;0.20;0.20;;;;;;;21.59;100.00;98250.47;7395024;19;20022;-85